IGO523C VABB-VERC
Flight info
| Callsign | IGO523C |
|---|---|
| Flight time | 1h 43m |
| Altitude | 37000 |
| Route | ANOLI2A NONEN Q19 DADSO DCT |
| Aircraft | A320/M-SDE3FGHIRWY/LB1 |
Departure
| Time | 2026-04-23 11:34 |
|---|---|
| Airport | Chhatrapati Shivaji Maharaj International Airport (VABB) |
Arrival
| Time | 2026-04-23 13:17 |
|---|---|
| Airport | Birsa Munda Airport (VERC) |
| Time | Latitude | Longitude | Altitude | Speed | Heading |
|---|---|---|---|---|---|
| 2026-04-23 11:06 | 19.09156 | 72.85448 | 49 ft | 0 kts | 360° |
| 2026-04-23 11:21 | 19.09144 | 72.85448 | 49 ft | 4 kts | 359° |
| 2026-04-23 11:21 | 19.09120 | 72.85448 | 44 ft | 2 kts | 359° |
| 2026-04-23 11:21 | 19.09099 | 72.85443 | 45 ft | 4 kts | 56° |
| 2026-04-23 11:22 | 19.09092 | 72.85418 | 44 ft | 4 kts | 89° |
| 2026-04-23 11:22 | 19.09092 | 72.85392 | 48 ft | 4 kts | 91° |
| 2026-04-23 11:22 | 19.09093 | 72.85363 | 49 ft | 4 kts | 91° |
| 2026-04-23 11:22 | 19.09093 | 72.85348 | 49 ft | 0 kts | 89° |
| 2026-04-23 11:24 | 19.09093 | 72.85350 | 49 ft | 1 kts | 89° |
| 2026-04-23 11:25 | 19.09093 | 72.85370 | 49 ft | 4 kts | 92° |
| 2026-04-23 11:25 | 19.09076 | 72.85396 | 46 ft | 5 kts | 150° |
| 2026-04-23 11:25 | 19.09035 | 72.85407 | 49 ft | 7 kts | 146° |
| 2026-04-23 11:25 | 19.09024 | 72.85460 | 49 ft | 9 kts | 91° |
| 2026-04-23 11:26 | 19.09025 | 72.85531 | 49 ft | 11 kts | 89° |
| 2026-04-23 11:26 | 19.09026 | 72.85616 | 49 ft | 13 kts | 89° |
| 2026-04-23 11:26 | 19.09028 | 72.85715 | 49 ft | 15 kts | 89° |
| 2026-04-23 11:26 | 19.09029 | 72.85829 | 49 ft | 17 kts | 89° |
| 2026-04-23 11:27 | 19.09032 | 72.85958 | 48 ft | 19 kts | 89° |
| 2026-04-23 11:27 | 19.09034 | 72.86102 | 48 ft | 20 kts | 90° |
| 2026-04-23 11:27 | 19.09036 | 72.86245 | 48 ft | 21 kts | 87° |
| 2026-04-23 11:27 | 19.09036 | 72.86276 | 48 ft | 2 kts | 88° |
| 2026-04-23 11:28 | 19.09036 | 72.86298 | 48 ft | 4 kts | 90° |
| 2026-04-23 11:28 | 19.09036 | 72.86336 | 48 ft | 6 kts | 88° |
| 2026-04-23 11:28 | 19.09037 | 72.86390 | 49 ft | 8 kts | 89° |
| 2026-04-23 11:28 | 19.09038 | 72.86457 | 49 ft | 10 kts | 89° |
| 2026-04-23 11:29 | 19.09039 | 72.86537 | 49 ft | 12 kts | 89° |
| 2026-04-23 11:29 | 19.09041 | 72.86627 | 50 ft | 13 kts | 89° |
| 2026-04-23 11:29 | 19.09042 | 72.86725 | 50 ft | 14 kts | 89° |
| 2026-04-23 11:29 | 19.09044 | 72.86836 | 50 ft | 16 kts | 89° |
| 2026-04-23 11:30 | 19.09045 | 72.86962 | 50 ft | 18 kts | 89° |
| 2026-04-23 11:30 | 19.09047 | 72.87103 | 50 ft | 20 kts | 89° |
| 2026-04-23 11:30 | 19.09050 | 72.87255 | 50 ft | 22 kts | 88° |
| 2026-04-23 11:30 | 19.09052 | 72.87418 | 49 ft | 23 kts | 90° |
| 2026-04-23 11:31 | 19.09054 | 72.87591 | 49 ft | 24 kts | 89° |
| 2026-04-23 11:31 | 19.09056 | 72.87742 | 49 ft | 13 kts | 89° |
| 2026-04-23 11:31 | 19.09024 | 72.87807 | 48 ft | 8 kts | 180° |
| 2026-04-23 11:31 | 19.09009 | 72.87807 | 48 ft | 2 kts | 181° |
| 2026-04-23 11:32 | 19.08982 | 72.87806 | 48 ft | 5 kts | 181° |
| 2026-04-23 11:32 | 19.08935 | 72.87805 | 48 ft | 8 kts | 181° |
| 2026-04-23 11:32 | 19.08887 | 72.87774 | 48 ft | 9 kts | 250° |
| 2026-04-23 11:32 | 19.08885 | 72.87758 | 48 ft | 2 kts | 265° |
| 2026-04-23 11:33 | 19.08884 | 72.87734 | 48 ft | 6 kts | 266° |
| 2026-04-23 11:33 | 19.08887 | 72.87524 | 48 ft | 61 kts | 271° |
| 2026-04-23 11:33 | 19.08876 | 72.86853 | 52 ft | 119 kts | 268° |
| 2026-04-23 11:33 | 19.08865 | 72.85814 | 62 ft | 162 kts | 268° |
| 2026-04-23 11:34 | 19.08837 | 72.84631 | 668 ft | 158 kts | 272° |
| 2026-04-23 11:34 | 19.08810 | 72.83459 | 1243 ft | 161 kts | 275° |
| 2026-04-23 11:34 | 19.08803 | 72.82212 | 1489 ft | 179 kts | 276° |
| 2026-04-23 11:34 | 19.08814 | 72.80840 | 1755 ft | 195 kts | 274° |
| 2026-04-23 11:35 | 19.08786 | 72.79374 | 2014 ft | 211 kts | 272° |
| 2026-04-23 11:35 | 19.08739 | 72.77729 | 2162 ft | 237 kts | 272° |
| 2026-04-23 11:35 | 19.08710 | 72.75903 | 2455 ft | 260 kts | 272° |
| 2026-04-23 11:35 | 19.08963 | 72.74011 | 3081 ft | 263 kts | 297° |
| 2026-04-23 11:36 | 19.10145 | 72.72572 | 3748 ft | 264 kts | 332° |
| 2026-04-23 11:36 | 19.11911 | 72.72121 | 4461 ft | 267 kts | 5° |
| 2026-04-23 11:36 | 19.13646 | 72.72814 | 5120 ft | 273 kts | 38° |
| 2026-04-23 11:36 | 19.15011 | 72.74233 | 5836 ft | 278 kts | 44° |
| 2026-04-23 11:37 | 19.16648 | 72.75268 | 6486 ft | 285 kts | 14° |
| 2026-04-23 11:37 | 19.18632 | 72.75437 | 7161 ft | 290 kts | 356° |
| 2026-04-23 11:37 | 19.20656 | 72.75184 | 7850 ft | 295 kts | 351° |
| 2026-04-23 11:37 | 19.22703 | 72.74816 | 8526 ft | 301 kts | 351° |
| 2026-04-23 11:38 | 19.24788 | 72.74472 | 9234 ft | 306 kts | 352° |
| 2026-04-23 11:38 | 19.26916 | 72.74199 | 9901 ft | 313 kts | 355° |
| 2026-04-23 11:38 | 19.29160 | 72.74337 | 10060 ft | 335 kts | 13° |
| 2026-04-23 11:38 | 19.31374 | 72.75264 | 10298 ft | 351 kts | 32° |
| 2026-04-23 11:39 | 19.33264 | 72.76850 | 10863 ft | 354 kts | 44° |
| 2026-04-23 11:39 | 19.35091 | 72.78600 | 11535 ft | 356 kts | 43° |
| 2026-04-23 11:39 | 19.36951 | 72.80347 | 12173 ft | 359 kts | 41° |
| 2026-04-23 11:39 | 19.38830 | 72.82092 | 12859 ft | 360 kts | 41° |
| 2026-04-23 11:40 | 19.40719 | 72.83842 | 13515 ft | 362 kts | 41° |
| 2026-04-23 11:40 | 19.42626 | 72.85610 | 14086 ft | 365 kts | 41° |
| 2026-04-23 11:40 | 19.44457 | 72.87481 | 14658 ft | 367 kts | 50° |
| 2026-04-23 11:40 | 19.45909 | 72.89704 | 15222 ft | 369 kts | 62° |
| 2026-04-23 11:41 | 19.46890 | 72.92214 | 15793 ft | 370 kts | 74° |
| 2026-04-23 11:41 | 19.47458 | 72.94842 | 16360 ft | 372 kts | 78° |
| 2026-04-23 11:41 | 19.48002 | 72.97533 | 16905 ft | 375 kts | 78° |
| 2026-04-23 11:41 | 19.48554 | 73.00252 | 17449 ft | 378 kts | 78° |
| 2026-04-23 11:42 | 19.49110 | 73.02987 | 18003 ft | 381 kts | 78° |
| 2026-04-23 11:42 | 19.49673 | 73.05741 | 18492 ft | 384 kts | 78° |
| 2026-04-23 11:42 | 19.50247 | 73.08513 | 18980 ft | 387 kts | 77° |
| 2026-04-23 11:42 | 19.50838 | 73.11302 | 19461 ft | 389 kts | 77° |
| 2026-04-23 11:43 | 19.51431 | 73.14076 | 19958 ft | 392 kts | 77° |
| 2026-04-23 11:43 | 19.52035 | 73.16902 | 20425 ft | 395 kts | 77° |
| 2026-04-23 11:43 | 19.52640 | 73.19750 | 20910 ft | 397 kts | 77° |
| 2026-04-23 11:43 | 19.53246 | 73.22618 | 21378 ft | 400 kts | 77° |
| 2026-04-23 11:44 | 19.53853 | 73.25507 | 21840 ft | 403 kts | 77° |
| 2026-04-23 11:44 | 19.54465 | 73.28421 | 22309 ft | 406 kts | 77° |
| 2026-04-23 11:44 | 19.55082 | 73.31350 | 22765 ft | 409 kts | 78° |
| 2026-04-23 11:44 | 19.55704 | 73.34310 | 23157 ft | 414 kts | 78° |
| 2026-04-23 11:45 | 19.56218 | 73.37318 | 23558 ft | 416 kts | 84° |
| 2026-04-23 11:45 | 19.56520 | 73.40386 | 23917 ft | 420 kts | 85° |
| 2026-04-23 11:45 | 19.56824 | 73.43474 | 24268 ft | 423 kts | 84° |
| 2026-04-23 11:45 | 19.57134 | 73.46582 | 24645 ft | 425 kts | 85° |
| 2026-04-23 11:46 | 19.57442 | 73.49670 | 24987 ft | 429 kts | 85° |
| 2026-04-23 11:46 | 19.57754 | 73.52823 | 25377 ft | 431 kts | 85° |
| 2026-04-23 11:46 | 19.58066 | 73.55999 | 25746 ft | 434 kts | 85° |
| 2026-04-23 11:46 | 19.58377 | 73.59195 | 26084 ft | 437 kts | 85° |
| 2026-04-23 11:47 | 19.58689 | 73.62411 | 26462 ft | 440 kts | 84° |
| 2026-04-23 11:47 | 19.59038 | 73.65644 | 26805 ft | 444 kts | 81° |
| 2026-04-23 11:47 | 19.59782 | 73.68831 | 27155 ft | 447 kts | 71° |
| 2026-04-23 11:47 | 19.61009 | 73.71867 | 27508 ft | 450 kts | 62° |
| 2026-04-23 11:48 | 19.62478 | 73.74759 | 27846 ft | 453 kts | 62° |
| 2026-04-23 11:48 | 19.63977 | 73.77709 | 28186 ft | 456 kts | 62° |
| 2026-04-23 11:48 | 19.65484 | 73.80685 | 28536 ft | 459 kts | 62° |
| 2026-04-23 11:48 | 19.66996 | 73.83677 | 28872 ft | 462 kts | 62° |
| 2026-04-23 11:49 | 19.68514 | 73.86691 | 29215 ft | 465 kts | 62° |
| 2026-04-23 11:49 | 19.70041 | 73.89727 | 29546 ft | 468 kts | 62° |
| 2026-04-23 11:49 | 19.71578 | 73.92782 | 29886 ft | 471 kts | 62° |
| 2026-04-23 11:49 | 19.73106 | 73.95822 | 30165 ft | 474 kts | 62° |
| 2026-04-23 11:50 | 19.74660 | 73.98917 | 30476 ft | 476 kts | 62° |
| 2026-04-23 11:50 | 19.76148 | 74.02046 | 30866 ft | 475 kts | 68° |
| 2026-04-23 11:50 | 19.77352 | 74.05311 | 31212 ft | 475 kts | 70° |
| 2026-04-23 11:50 | 19.78533 | 74.08591 | 31563 ft | 476 kts | 70° |
| 2026-04-23 11:51 | 19.79714 | 74.11876 | 31934 ft | 477 kts | 70° |
| 2026-04-23 11:51 | 19.80897 | 74.15171 | 32299 ft | 477 kts | 70° |
| 2026-04-23 11:51 | 19.82080 | 74.18464 | 32672 ft | 478 kts | 70° |
| 2026-04-23 11:51 | 19.83260 | 74.21760 | 33043 ft | 478 kts | 70° |
| 2026-04-23 11:52 | 19.84424 | 74.25017 | 33416 ft | 478 kts | 70° |
| 2026-04-23 11:52 | 19.85603 | 74.28321 | 33802 ft | 479 kts | 70° |
| 2026-04-23 11:52 | 19.86783 | 74.31633 | 34141 ft | 479 kts | 70° |
| 2026-04-23 11:52 | 19.87964 | 74.34943 | 34435 ft | 480 kts | 70° |
| 2026-04-23 11:53 | 19.89151 | 74.38259 | 34659 ft | 482 kts | 70° |
| 2026-04-23 11:53 | 19.90347 | 74.41596 | 34875 ft | 485 kts | 70° |
| 2026-04-23 11:53 | 19.91550 | 74.44951 | 35133 ft | 486 kts | 70° |
| 2026-04-23 11:53 | 19.92748 | 74.48308 | 35411 ft | 486 kts | 71° |
| 2026-04-23 11:54 | 19.93947 | 74.51668 | 35687 ft | 487 kts | 71° |
| 2026-04-23 11:54 | 19.95130 | 74.54986 | 35964 ft | 487 kts | 71° |
| 2026-04-23 11:54 | 19.96326 | 74.58352 | 36241 ft | 487 kts | 71° |
| 2026-04-23 11:54 | 19.97523 | 74.61725 | 36511 ft | 487 kts | 71° |
| 2026-04-23 11:55 | 19.98720 | 74.65097 | 36761 ft | 488 kts | 71° |
| 2026-04-23 11:55 | 20.01133 | 74.71883 | 36842 ft | 492 kts | 71° |
| 2026-04-23 11:56 | 20.03626 | 74.78671 | 36859 ft | 493 kts | 70° |
| 2026-04-23 11:56 | 20.06139 | 74.85401 | 36840 ft | 493 kts | 70° |
| 2026-04-23 11:57 | 20.08646 | 74.92194 | 36861 ft | 493 kts | 70° |
| 2026-04-23 11:57 | 20.11137 | 74.98988 | 36858 ft | 493 kts | 70° |
| 2026-04-23 11:58 | 20.13638 | 75.05792 | 36862 ft | 494 kts | 70° |
| 2026-04-23 11:58 | 20.16138 | 75.12609 | 36835 ft | 496 kts | 70° |
| 2026-04-23 11:59 | 20.18625 | 75.19406 | 36861 ft | 496 kts | 70° |
| 2026-04-23 11:59 | 20.21123 | 75.26261 | 36879 ft | 496 kts | 70° |
| 2026-04-23 12:00 | 20.23615 | 75.33108 | 36882 ft | 496 kts | 70° |
| 2026-04-23 12:00 | 20.26106 | 75.39959 | 36869 ft | 496 kts | 70° |
| 2026-04-23 12:01 | 20.28581 | 75.46764 | 36847 ft | 497 kts | 70° |
| 2026-04-23 12:01 | 20.30722 | 75.53755 | 36840 ft | 497 kts | 76° |
| 2026-04-23 12:02 | 20.32608 | 75.60841 | 36843 ft | 498 kts | 76° |
| 2026-04-23 12:02 | 20.34495 | 75.67950 | 36843 ft | 499 kts | 76° |
| 2026-04-23 12:03 | 20.36371 | 75.75015 | 36848 ft | 499 kts | 76° |
| 2026-04-23 12:03 | 20.38262 | 75.82133 | 36828 ft | 500 kts | 77° |
| 2026-04-23 12:04 | 20.40150 | 75.89281 | 36827 ft | 501 kts | 77° |
| 2026-04-23 12:04 | 20.42033 | 75.96443 | 36829 ft | 503 kts | 77° |
| 2026-04-23 12:05 | 20.43924 | 76.03574 | 36842 ft | 503 kts | 76° |
| 2026-04-23 12:05 | 20.45910 | 76.10733 | 36842 ft | 504 kts | 76° |
| 2026-04-23 12:06 | 20.47918 | 76.17895 | 36819 ft | 505 kts | 76° |
| 2026-04-23 12:06 | 20.50900 | 76.28696 | 36803 ft | 507 kts | 76° |
| 2026-04-23 12:07 | 20.52876 | 76.35924 | 36822 ft | 508 kts | 76° |
| 2026-04-23 12:07 | 20.54849 | 76.43120 | 36823 ft | 509 kts | 76° |
| 2026-04-23 12:08 | 20.56838 | 76.50365 | 36824 ft | 509 kts | 76° |
| 2026-04-23 12:08 | 20.58818 | 76.57632 | 36799 ft | 510 kts | 77° |
| 2026-04-23 12:09 | 20.60801 | 76.64913 | 36795 ft | 512 kts | 77° |
| 2026-04-23 12:09 | 20.62781 | 76.72165 | 36814 ft | 512 kts | 76° |
| 2026-04-23 12:10 | 20.64765 | 76.79461 | 36812 ft | 512 kts | 76° |
| 2026-04-23 12:10 | 20.66742 | 76.86755 | 36807 ft | 511 kts | 76° |
| 2026-04-23 12:11 | 20.68380 | 76.92815 | 36800 ft | 512 kts | 77° |
| 2026-04-23 12:11 | 20.70355 | 77.00119 | 36788 ft | 512 kts | 77° |
| 2026-04-23 12:12 | 20.72337 | 77.07439 | 36781 ft | 513 kts | 76° |
| 2026-04-23 12:12 | 20.74636 | 77.15949 | 36794 ft | 513 kts | 77° |
| 2026-04-23 12:13 | 20.76283 | 77.22044 | 36796 ft | 514 kts | 77° |
| 2026-04-23 12:13 | 20.78255 | 77.29381 | 36776 ft | 515 kts | 77° |
| 2026-04-23 12:14 | 20.80220 | 77.36739 | 36769 ft | 516 kts | 77° |
| 2026-04-23 12:14 | 20.82185 | 77.44119 | 36783 ft | 516 kts | 77° |
| 2026-04-23 12:15 | 20.84137 | 77.51452 | 36786 ft | 517 kts | 77° |
| 2026-04-23 12:15 | 20.86113 | 77.58842 | 36791 ft | 517 kts | 77° |
| 2026-04-23 12:16 | 20.88133 | 77.66227 | 36773 ft | 518 kts | 77° |
| 2026-04-23 12:16 | 20.90167 | 77.73633 | 36781 ft | 519 kts | 77° |
| 2026-04-23 12:17 | 20.92187 | 77.81049 | 36789 ft | 520 kts | 77° |
| 2026-04-23 12:17 | 20.94249 | 77.88417 | 36792 ft | 521 kts | 76° |
| 2026-04-23 12:18 | 20.96387 | 77.95816 | 36789 ft | 521 kts | 76° |
| 2026-04-23 12:18 | 20.98522 | 78.03234 | 36790 ft | 522 kts | 76° |
| 2026-04-23 12:19 | 21.00637 | 78.10671 | 36787 ft | 523 kts | 76° |
| 2026-04-23 12:19 | 21.02722 | 78.18076 | 36791 ft | 524 kts | 76° |
| 2026-04-23 12:20 | 21.04825 | 78.25546 | 36803 ft | 524 kts | 76° |
| 2026-04-23 12:20 | 21.06934 | 78.33015 | 36835 ft | 524 kts | 76° |
| 2026-04-23 12:21 | 21.09040 | 78.40486 | 36826 ft | 523 kts | 76° |
| 2026-04-23 12:21 | 21.11126 | 78.47891 | 36824 ft | 522 kts | 76° |
| 2026-04-23 12:22 | 21.13215 | 78.55332 | 36817 ft | 522 kts | 76° |
| 2026-04-23 12:22 | 21.15296 | 78.62770 | 36822 ft | 521 kts | 76° |
| 2026-04-23 12:23 | 21.17373 | 78.70213 | 36803 ft | 521 kts | 77° |
| 2026-04-23 12:23 | 21.19438 | 78.77613 | 36785 ft | 523 kts | 77° |
| 2026-04-23 12:24 | 21.21506 | 78.85090 | 36783 ft | 524 kts | 77° |
| 2026-04-23 12:24 | 21.23559 | 78.92579 | 36786 ft | 524 kts | 77° |
| 2026-04-23 12:25 | 21.25610 | 79.00085 | 36791 ft | 525 kts | 77° |
| 2026-04-23 12:25 | 21.27660 | 79.07537 | 36783 ft | 525 kts | 77° |
| 2026-04-23 12:26 | 21.29731 | 79.15061 | 36778 ft | 527 kts | 77° |
| 2026-04-23 12:26 | 21.31787 | 79.22603 | 36784 ft | 528 kts | 77° |
| 2026-04-23 12:27 | 21.33846 | 79.30163 | 36793 ft | 528 kts | 77° |
| 2026-04-23 12:27 | 21.35909 | 79.37725 | 36802 ft | 529 kts | 77° |
| 2026-04-23 12:28 | 21.37955 | 79.45250 | 36789 ft | 529 kts | 77° |
| 2026-04-23 12:28 | 21.40011 | 79.52832 | 36790 ft | 530 kts | 77° |
| 2026-04-23 12:29 | 21.42072 | 79.60432 | 36793 ft | 530 kts | 77° |
| 2026-04-23 12:29 | 21.44131 | 79.68034 | 36798 ft | 531 kts | 77° |
| 2026-04-23 12:30 | 21.46170 | 79.75593 | 36793 ft | 531 kts | 77° |
| 2026-04-23 12:30 | 21.48221 | 79.83213 | 36795 ft | 531 kts | 77° |
| 2026-04-23 12:31 | 21.50259 | 79.90831 | 36819 ft | 531 kts | 77° |
| 2026-04-23 12:31 | 21.52303 | 79.98456 | 36806 ft | 531 kts | 77° |
| 2026-04-23 12:32 | 21.54344 | 80.06080 | 36808 ft | 531 kts | 77° |
| 2026-04-23 12:32 | 21.56363 | 80.13665 | 36802 ft | 531 kts | 77° |
| 2026-04-23 12:33 | 21.58407 | 80.21294 | 36792 ft | 532 kts | 77° |
| 2026-04-23 12:33 | 21.60463 | 80.28927 | 36800 ft | 532 kts | 76° |
| 2026-04-23 12:34 | 21.62669 | 80.36520 | 36801 ft | 533 kts | 75° |
| 2026-04-23 12:34 | 21.64944 | 80.44046 | 36807 ft | 533 kts | 75° |
| 2026-04-23 12:35 | 21.67201 | 80.51630 | 36812 ft | 533 kts | 75° |
| 2026-04-23 12:35 | 21.69381 | 80.59240 | 36815 ft | 532 kts | 77° |
| 2026-04-23 12:36 | 21.71390 | 80.66882 | 36828 ft | 531 kts | 77° |
| 2026-04-23 12:36 | 21.73350 | 80.74483 | 36828 ft | 531 kts | 77° |
| 2026-04-23 12:37 | 21.75371 | 80.82131 | 36821 ft | 531 kts | 77° |
| 2026-04-23 12:37 | 21.77416 | 80.89766 | 36823 ft | 531 kts | 77° |
| 2026-04-23 12:38 | 21.79453 | 80.97411 | 36802 ft | 531 kts | 77° |
| 2026-04-23 12:38 | 21.81493 | 81.05056 | 36803 ft | 532 kts | 77° |
| 2026-04-23 12:39 | 21.83512 | 81.12659 | 36805 ft | 532 kts | 77° |
| 2026-04-23 12:39 | 21.85523 | 81.20330 | 36799 ft | 532 kts | 77° |
| 2026-04-23 12:40 | 21.87525 | 81.27999 | 36785 ft | 532 kts | 77° |
| 2026-04-23 12:40 | 21.89542 | 81.35669 | 36788 ft | 533 kts | 77° |
| 2026-04-23 12:41 | 21.91544 | 81.43295 | 36778 ft | 533 kts | 77° |
| 2026-04-23 12:41 | 21.93554 | 81.50969 | 36781 ft | 533 kts | 77° |
| 2026-04-23 12:42 | 21.95624 | 81.58637 | 36780 ft | 533 kts | 76° |
| 2026-04-23 12:42 | 21.97718 | 81.66292 | 36769 ft | 533 kts | 76° |
| 2026-04-23 12:43 | 21.99778 | 81.73903 | 36778 ft | 533 kts | 77° |
| 2026-04-23 12:43 | 22.01823 | 81.81567 | 36780 ft | 532 kts | 77° |
| 2026-04-23 12:44 | 22.03873 | 81.89235 | 36780 ft | 532 kts | 77° |
| 2026-04-23 12:44 | 22.05925 | 81.96895 | 36778 ft | 532 kts | 76° |
| 2026-04-23 12:45 | 22.07973 | 82.04562 | 36775 ft | 532 kts | 77° |
| 2026-04-23 12:45 | 22.10007 | 82.12178 | 36775 ft | 532 kts | 77° |
| 2026-04-23 12:46 | 22.12048 | 82.19843 | 36774 ft | 532 kts | 77° |
| 2026-04-23 12:46 | 22.14088 | 82.27517 | 36779 ft | 532 kts | 77° |
| 2026-04-23 12:47 | 22.16117 | 82.35186 | 36783 ft | 532 kts | 77° |
| 2026-04-23 12:47 | 22.18129 | 82.42812 | 36786 ft | 532 kts | 76° |
| 2026-04-23 12:48 | 22.20159 | 82.50488 | 36790 ft | 532 kts | 76° |
| 2026-04-23 12:48 | 22.22191 | 82.58167 | 36792 ft | 532 kts | 76° |
| 2026-04-23 12:49 | 22.24212 | 82.65849 | 36798 ft | 532 kts | 77° |
| 2026-04-23 12:49 | 22.26217 | 82.73482 | 36801 ft | 532 kts | 76° |
| 2026-04-23 12:50 | 22.28295 | 82.81158 | 36799 ft | 532 kts | 76° |
| 2026-04-23 12:50 | 22.30400 | 82.88819 | 36828 ft | 533 kts | 76° |
| 2026-04-23 12:51 | 22.32500 | 82.96494 | 36820 ft | 533 kts | 76° |
| 2026-04-23 12:51 | 22.34578 | 83.04123 | 36820 ft | 533 kts | 76° |
| 2026-04-23 12:52 | 22.36674 | 83.11794 | 36820 ft | 533 kts | 76° |
| 2026-04-23 12:52 | 22.38765 | 83.19478 | 36816 ft | 533 kts | 76° |
| 2026-04-23 12:53 | 22.40823 | 83.27174 | 36818 ft | 533 kts | 76° |
| 2026-04-23 12:53 | 22.42848 | 83.34879 | 36818 ft | 533 kts | 76° |
| 2026-04-23 12:54 | 22.44887 | 83.42534 | 36821 ft | 533 kts | 75° |
| 2026-04-23 12:54 | 22.46960 | 83.50233 | 36846 ft | 534 kts | 76° |
| 2026-04-23 12:55 | 22.49030 | 83.57941 | 36574 ft | 533 kts | 75° |
| 2026-04-23 12:55 | 22.50056 | 83.61789 | 36324 ft | 532 kts | 75° |
| 2026-04-23 12:55 | 22.51068 | 83.65588 | 36083 ft | 532 kts | 75° |
| 2026-04-23 12:56 | 22.52095 | 83.69432 | 35831 ft | 532 kts | 75° |
| 2026-04-23 12:56 | 22.53125 | 83.73290 | 35014 ft | 539 kts | 75° |
| 2026-04-23 12:56 | 22.54163 | 83.77202 | 34363 ft | 540 kts | 75° |
| 2026-04-23 12:56 | 22.55193 | 83.81102 | 33782 ft | 540 kts | 75° |
| 2026-04-23 12:57 | 22.56221 | 83.85007 | 33117 ft | 538 kts | 75° |
| 2026-04-23 12:57 | 22.57244 | 83.88886 | 32590 ft | 534 kts | 74° |
| 2026-04-23 12:57 | 22.58255 | 83.92715 | 32198 ft | 526 kts | 74° |
| 2026-04-23 12:57 | 22.59255 | 83.96483 | 31483 ft | 515 kts | 74° |
| 2026-04-23 12:58 | 22.60221 | 84.00118 | 30777 ft | 503 kts | 74° |
| 2026-04-23 12:58 | 22.61174 | 84.03706 | 30124 ft | 490 kts | 74° |
| 2026-04-23 12:58 | 22.62098 | 84.07208 | 29326 ft | 478 kts | 74° |
| 2026-04-23 12:58 | 22.62993 | 84.10620 | 28688 ft | 463 kts | 74° |
| 2026-04-23 12:59 | 22.63862 | 84.13930 | 28434 ft | 452 kts | 74° |
| 2026-04-23 12:59 | 22.64716 | 84.17177 | 28009 ft | 447 kts | 74° |
| 2026-04-23 12:59 | 22.65562 | 84.20402 | 27520 ft | 443 kts | 74° |
| 2026-04-23 12:59 | 22.66399 | 84.23600 | 27054 ft | 440 kts | 74° |
| 2026-04-23 13:00 | 22.67226 | 84.26776 | 26591 ft | 436 kts | 74° |
| 2026-04-23 13:00 | 22.68037 | 84.29881 | 26146 ft | 433 kts | 73° |
| 2026-04-23 13:00 | 22.68853 | 84.32999 | 25696 ft | 429 kts | 73° |
| 2026-04-23 13:00 | 22.69664 | 84.36098 | 25232 ft | 426 kts | 73° |
| 2026-04-23 13:01 | 22.70469 | 84.39176 | 24770 ft | 423 kts | 73° |
| 2026-04-23 13:01 | 22.71268 | 84.42232 | 24295 ft | 421 kts | 73° |
| 2026-04-23 13:01 | 22.72061 | 84.45276 | 23826 ft | 419 kts | 73° |
| 2026-04-23 13:01 | 22.72850 | 84.48299 | 23408 ft | 415 kts | 73° |
| 2026-04-23 13:02 | 22.73631 | 84.51297 | 22852 ft | 411 kts | 73° |
| 2026-04-23 13:02 | 22.74383 | 84.54190 | 22306 ft | 397 kts | 73° |
| 2026-04-23 13:02 | 22.75160 | 84.57040 | 21853 ft | 393 kts | 69° |
| 2026-04-23 13:02 | 22.76289 | 84.59713 | 21432 ft | 388 kts | 61° |
| 2026-04-23 13:03 | 22.77553 | 84.62286 | 20969 ft | 385 kts | 61° |
| 2026-04-23 13:03 | 22.78799 | 84.64837 | 20511 ft | 382 kts | 61° |
| 2026-04-23 13:03 | 22.80029 | 84.67372 | 20057 ft | 378 kts | 61° |
| 2026-04-23 13:03 | 22.81246 | 84.69889 | 19596 ft | 376 kts | 61° |
| 2026-04-23 13:04 | 22.82452 | 84.72386 | 19140 ft | 373 kts | 61° |
| 2026-04-23 13:04 | 22.83638 | 84.74835 | 18684 ft | 371 kts | 61° |
| 2026-04-23 13:04 | 22.84833 | 84.77297 | 18220 ft | 368 kts | 61° |
| 2026-04-23 13:04 | 22.86022 | 84.79746 | 17737 ft | 366 kts | 61° |
| 2026-04-23 13:05 | 22.87202 | 84.82173 | 17253 ft | 362 kts | 61° |
| 2026-04-23 13:05 | 22.88368 | 84.84576 | 16805 ft | 359 kts | 61° |
| 2026-04-23 13:05 | 22.89525 | 84.86961 | 16372 ft | 355 kts | 61° |
| 2026-04-23 13:05 | 22.90669 | 84.89327 | 15924 ft | 353 kts | 61° |
| 2026-04-23 13:06 | 22.92932 | 84.94019 | 15030 ft | 349 kts | 61° |
| 2026-04-23 13:06 | 22.94041 | 84.96321 | 14587 ft | 349 kts | 62° |
| 2026-04-23 13:06 | 22.95163 | 84.98650 | 14140 ft | 348 kts | 61° |
| 2026-04-23 13:07 | 22.96284 | 85.00973 | 13695 ft | 348 kts | 61° |
| 2026-04-23 13:07 | 22.97406 | 85.03296 | 13208 ft | 347 kts | 61° |
| 2026-04-23 13:07 | 22.98523 | 85.05611 | 12747 ft | 345 kts | 61° |
| 2026-04-23 13:07 | 22.99633 | 85.07908 | 12309 ft | 343 kts | 61° |
| 2026-04-23 13:08 | 23.00739 | 85.10195 | 11856 ft | 341 kts | 61° |
| 2026-04-23 13:08 | 23.01841 | 85.12476 | 11412 ft | 340 kts | 62° |
| 2026-04-23 13:08 | 23.02920 | 85.14715 | 10972 ft | 339 kts | 61° |
| 2026-04-23 13:08 | 23.04011 | 85.16984 | 10535 ft | 339 kts | 61° |
| 2026-04-23 13:09 | 23.05104 | 85.19255 | 10092 ft | 339 kts | 61° |
| 2026-04-23 13:09 | 23.06184 | 85.21502 | 9876 ft | 331 kts | 61° |
| 2026-04-23 13:09 | 23.07230 | 85.23680 | 9756 ft | 320 kts | 61° |
| 2026-04-23 13:09 | 23.08237 | 85.25779 | 9346 ft | 310 kts | 61° |
| 2026-04-23 13:10 | 23.09224 | 85.27838 | 8734 ft | 306 kts | 61° |
| 2026-04-23 13:10 | 23.10202 | 85.29872 | 8159 ft | 302 kts | 61° |
| 2026-04-23 13:10 | 23.11156 | 85.31854 | 7595 ft | 298 kts | 60° |
| 2026-04-23 13:10 | 23.12109 | 85.33837 | 7032 ft | 295 kts | 60° |
| 2026-04-23 13:11 | 23.13053 | 85.35801 | 6415 ft | 293 kts | 60° |
| 2026-04-23 13:11 | 23.13984 | 85.37743 | 6052 ft | 283 kts | 60° |
| 2026-04-23 13:11 | 23.14860 | 85.39577 | 5885 ft | 264 kts | 60° |
| 2026-04-23 13:11 | 23.15674 | 85.41285 | 5761 ft | 245 kts | 60° |
| 2026-04-23 13:12 | 23.16433 | 85.42873 | 5650 ft | 231 kts | 60° |
| 2026-04-23 13:12 | 23.17162 | 85.44385 | 5542 ft | 220 kts | 57° |
| 2026-04-23 13:12 | 23.18160 | 85.45534 | 5309 ft | 211 kts | 26° |
| 2026-04-23 13:12 | 23.19566 | 85.45844 | 5004 ft | 206 kts | 350° |
| 2026-04-23 13:13 | 23.20843 | 85.45238 | 4826 ft | 201 kts | 317° |
| 2026-04-23 13:13 | 23.21790 | 85.44129 | 4592 ft | 199 kts | 311° |
| 2026-04-23 13:13 | 23.22701 | 85.42995 | 4363 ft | 199 kts | 311° |
| 2026-04-23 13:13 | 23.23612 | 85.41869 | 4113 ft | 197 kts | 312° |
| 2026-04-23 13:14 | 23.24500 | 85.40776 | 3891 ft | 188 kts | 312° |
| 2026-04-23 13:14 | 23.25331 | 85.39751 | 3647 ft | 178 kts | 313° |
| 2026-04-23 13:14 | 23.26107 | 85.38796 | 3455 ft | 157 kts | 312° |
| 2026-04-23 13:14 | 23.26800 | 85.37943 | 3256 ft | 146 kts | 313° |
| 2026-04-23 13:15 | 23.27460 | 85.37131 | 3069 ft | 141 kts | 312° |
| 2026-04-23 13:15 | 23.28108 | 85.36332 | 2899 ft | 141 kts | 311° |
| 2026-04-23 13:15 | 23.28758 | 85.35532 | 2703 ft | 143 kts | 311° |
| 2026-04-23 13:15 | 23.29414 | 85.34724 | 2497 ft | 143 kts | 309° |
| 2026-04-23 13:16 | 23.30072 | 85.33912 | 2321 ft | 143 kts | 309° |
| 2026-04-23 13:16 | 23.30722 | 85.33107 | 2190 ft | 143 kts | 310° |
| 2026-04-23 13:16 | 23.31358 | 85.32313 | 2140 ft | 128 kts | 311° |
| 2026-04-23 13:16 | 23.31851 | 85.31717 | 2148 ft | 82 kts | 312° |
| 2026-04-23 13:17 | 23.32115 | 85.31395 | 2151 ft | 32 kts | 311° |
| 2026-04-23 13:17 | 23.32182 | 85.31314 | 2154 ft | 9 kts | 311° |
| 2026-04-23 13:17 | 23.32233 | 85.31260 | 2159 ft | 12 kts | 332° |
| 2026-04-23 13:17 | 23.32309 | 85.31225 | 2154 ft | 12 kts | 339° |
| 2026-04-23 13:18 | 23.32395 | 85.31270 | 2152 ft | 18 kts | 46° |
| 2026-04-23 13:18 | 23.32403 | 85.31386 | 2150 ft | 18 kts | 125° |
| 2026-04-23 13:18 | 23.32317 | 85.31490 | 2150 ft | 20 kts | 130° |
| 2026-04-23 13:18 | 23.32219 | 85.31609 | 2150 ft | 22 kts | 132° |
| 2026-04-23 13:19 | 23.32112 | 85.31743 | 2150 ft | 25 kts | 131° |
| 2026-04-23 13:19 | 23.32031 | 85.31844 | 2149 ft | 11 kts | 131° |
| 2026-04-23 13:19 | 23.31977 | 85.31912 | 2149 ft | 11 kts | 131° |
| 2026-04-23 13:19 | 23.31943 | 85.31925 | 2149 ft | 6 kts | 196° |
| 2026-04-23 13:20 | 23.31906 | 85.31891 | 2149 ft | 8 kts | 222° |
| 2026-04-23 13:20 | 23.31854 | 85.31839 | 2148 ft | 12 kts | 224° |
| 2026-04-23 13:20 | 23.31772 | 85.31813 | 2145 ft | 16 kts | 145° |
| 2026-04-23 13:20 | 23.31692 | 85.31914 | 2143 ft | 19 kts | 131° |
| 2026-04-23 13:21 | 23.31598 | 85.32030 | 2140 ft | 22 kts | 132° |
| 2026-04-23 13:21 | 23.31496 | 85.32155 | 2139 ft | 15 kts | 131° |
| 2026-04-23 13:21 | 23.31487 | 85.32246 | 2140 ft | 14 kts | 46° |
| 2026-04-23 13:21 | 23.31548 | 85.32301 | 2146 ft | 10 kts | 40° |
| 2026-04-23 13:22 | 23.31597 | 85.32348 | 2145 ft | 5 kts | 37° |
| 2026-04-23 13:22 | 23.31635 | 85.32352 | 2149 ft | 6 kts | 359° |
| 2026-04-23 13:22 | 23.31673 | 85.32362 | 2149 ft | 4 kts | 51° |
| 2026-04-23 13:22 | 23.31658 | 85.32391 | 2149 ft | 6 kts | 137° |
| 2026-04-23 13:23 | 23.31637 | 85.32421 | 2149 ft | 4 kts | 88° |
| 2026-04-23 13:23 | 23.31649 | 85.32435 | 2149 ft | 1 kts | 30° |
| 2026-04-23 13:23 | 23.31660 | 85.32443 | 2149 ft | 3 kts | 38° |
| 2026-04-23 13:23 | 23.31666 | 85.32448 | 2149 ft | 1 kts | 37° |
| 2026-04-23 13:24 | 23.31670 | 85.32451 | 2149 ft | 0 kts | 38° |